createdAt,value
2023-02-27T00:03:49.177Z,60.51
2023-02-27T00:08:52.169Z,60.50
2023-02-27T00:13:55.178Z,60.36
2023-02-27T00:19:01.526Z,60.71
2023-02-27T00:24:05.443Z,60.89
2023-02-27T00:29:08.426Z,60.75
2023-02-27T00:34:11.570Z,60.85
2023-02-27T00:39:15.705Z,60.74
2023-02-27T00:44:19.134Z,60.85
2023-02-27T00:49:22.108Z,61.62
2023-02-27T00:54:24.917Z,61.86
2023-02-27T00:59:28.003Z,61.88
2023-02-27T01:04:30.948Z,61.94
2023-02-27T01:09:34.120Z,61.93
2023-02-27T01:14:37.385Z,61.43
2023-02-27T01:19:41.394Z,61.68
2023-02-27T01:24:44.360Z,62.07
2023-02-27T01:29:47.180Z,61.56
2023-02-27T01:34:50.478Z,61.10
2023-02-27T01:39:53.240Z,61.61
2023-02-27T01:45:13.070Z,61.60
2023-02-27T01:50:18.034Z,61.71
2023-02-27T01:55:22.703Z,61.38
2023-02-27T02:00:26.611Z,61.83
2023-02-27T02:05:30.578Z,62.10
2023-02-27T02:10:33.982Z,61.78
2023-02-27T02:15:44.702Z,61.71
2023-02-27T02:21:14.795Z,61.09
2023-02-27T02:27:23.355Z,60.94
2023-02-27T02:32:59.847Z,60.18
2023-02-27T02:38:40.214Z,59.60
2023-02-27T02:44:45.923Z,59.04
2023-02-27T02:50:16.546Z,58.62
2023-02-27T02:55:37.199Z,58.74
2023-02-27T03:01:04.486Z,58.68
2023-02-27T03:06:34.812Z,58.22
2023-02-27T03:11:45.056Z,58.67
2023-02-27T03:16:53.610Z,58.65
2023-02-27T03:22:09.010Z,58.80
2023-02-27T03:27:12.602Z,58.89
2023-02-27T03:32:52.613Z,59.00
2023-02-27T03:38:16.610Z,59.05
2023-02-27T03:43:35.987Z,58.96
2023-02-27T03:48:44.656Z,58.81
2023-02-27T03:54:35.272Z,59.02
2023-02-27T03:59:38.844Z,59.04
2023-02-27T04:04:41.916Z,59.45
2023-02-27T04:10:12.554Z,59.93
2023-02-27T04:15:21.562Z,59.45
2023-02-27T04:20:44.559Z,59.84
2023-02-27T04:26:14.003Z,60.21
2023-02-27T04:31:30.555Z,59.90
2023-02-27T04:36:49.162Z,60.08
2023-02-27T04:42:23.934Z,60.43
2023-02-27T04:47:35.192Z,60.08
2023-02-27T04:52:44.879Z,59.79
2023-02-27T04:58:01.915Z,59.43
2023-02-27T05:03:17.131Z,59.39
2023-02-27T05:09:10.009Z,58.82
2023-02-27T05:14:21.888Z,58.33
2023-02-27T05:19:24.871Z,58.17
2023-02-27T05:24:43.507Z,58.04
2023-02-27T05:29:51.467Z,58.21
2023-02-27T05:35:20.918Z,58.09
2023-02-27T05:40:31.301Z,57.89
2023-02-27T05:45:37.776Z,57.88
2023-02-27T05:50:44.063Z,57.86
2023-02-27T05:55:56.683Z,57.70
2023-02-27T06:01:08.107Z,58.12
2023-02-27T06:06:18.261Z,58.07
2023-02-27T06:11:21.392Z,58.31
2023-02-27T06:16:24.404Z,57.28
2023-02-27T06:21:27.387Z,57.65
2023-02-27T06:26:30.348Z,57.76
2023-02-27T06:31:33.350Z,57.08
2023-02-27T06:36:36.381Z,56.80
2023-02-27T06:41:39.323Z,55.84
2023-02-27T06:46:42.428Z,56.03
2023-02-27T06:51:45.564Z,55.32
2023-02-27T06:56:48.531Z,55.04
2023-02-27T07:01:52.022Z,54.36
2023-02-27T07:07:34.352Z,53.38
2023-02-27T07:12:17.779Z,51.98
2023-02-27T07:17:22.549Z,52.06
2023-02-27T07:22:25.416Z,51.35
2023-02-27T07:27:28.184Z,50.75
2023-02-27T07:32:31.194Z,50.37
2023-02-27T07:37:34.175Z,49.64
2023-02-27T07:42:37.226Z,49.66
2023-02-27T07:47:40.054Z,49.78
2023-02-27T07:52:44.443Z,49.44
2023-02-27T07:57:47.446Z,49.42
2023-02-27T08:02:50.630Z,48.21
2023-02-27T08:07:53.697Z,47.89
2023-02-27T08:12:56.913Z,46.81
2023-02-27T08:18:00.041Z,47.03
2023-02-27T08:23:03.084Z,45.83
2023-02-27T08:28:06.060Z,46.29
2023-02-27T08:33:08.987Z,45.37
2023-02-27T08:38:11.909Z,46.03
2023-02-27T08:43:14.693Z,45.92
2023-02-27T08:48:18.619Z,45.93
2023-02-27T08:53:22.999Z,47.13
2023-02-27T08:58:26.136Z,47.05
2023-02-27T09:03:29.244Z,46.63
2023-02-27T09:08:32.688Z,46.08
2023-02-27T09:13:35.667Z,45.46
2023-02-27T09:18:38.641Z,45.79
2023-02-27T09:23:41.948Z,45.41
2023-02-27T09:28:45.084Z,44.99
2023-02-27T09:33:48.090Z,44.87
2023-02-27T09:38:51.126Z,44.38
2023-02-27T09:43:54.049Z,44.00
2023-02-27T09:49:04.922Z,44.06
2023-02-27T09:54:10.492Z,43.88
2023-02-27T09:59:25.269Z,43.91
2023-02-27T10:04:50.998Z,44.01
2023-02-27T10:10:25.867Z,43.40
2023-02-27T10:15:39.207Z,43.64
2023-02-27T10:21:02.787Z,43.85
2023-02-27T10:26:07.694Z,44.03
2023-02-27T10:31:21.455Z,43.63
2023-02-27T10:36:33.549Z,43.65
2023-02-27T10:41:39.960Z,43.37
2023-02-27T10:46:43.461Z,43.54
2023-02-27T10:52:04.418Z,43.08
2023-02-27T10:57:37.388Z,42.46
2023-02-27T11:02:43.749Z,42.15
2023-02-27T11:07:47.205Z,42.55
2023-02-27T11:13:18.610Z,41.79
2023-02-27T11:18:32.042Z,42.02
2023-02-27T11:23:35.891Z,42.49
2023-02-27T11:28:38.736Z,41.55
2023-02-27T11:33:54.910Z,41.32
2023-02-27T11:38:58.026Z,41.34
2023-02-27T11:44:05.632Z,40.78
2023-02-27T11:49:34.849Z,40.37
2023-02-27T11:54:58.853Z,39.27
2023-02-27T12:00:26.981Z,39.05
2023-02-27T12:05:40.298Z,39.25
2023-02-27T12:11:11.297Z,39.76
2023-02-27T12:16:39.169Z,39.81
2023-02-27T12:21:52.190Z,39.94
2023-02-27T12:27:22.304Z,40.28
2023-02-27T12:32:45.239Z,40.14
2023-02-27T12:37:48.598Z,40.06
2023-02-27T12:43:03.094Z,39.39
2023-02-27T12:48:41.073Z,40.15
2023-02-27T12:53:57.605Z,39.27
2023-02-27T12:59:09.444Z,38.93
2023-02-27T13:04:30.413Z,38.93
2023-02-27T13:10:01.226Z,38.76
2023-02-27T13:15:19.030Z,38.56
2023-02-27T13:20:22.019Z,38.56
2023-02-27T13:25:26.016Z,39.13
2023-02-27T13:30:40.878Z,39.76
2023-02-27T13:36:13.297Z,39.68
2023-02-27T13:41:25.442Z,39.89
2023-02-27T13:46:33.263Z,40.09
2023-02-27T13:51:36.140Z,40.36
2023-02-27T13:56:45.409Z,40.22
2023-02-27T14:01:58.186Z,40.22
2023-02-27T14:07:15.145Z,40.09
2023-02-27T14:12:43.982Z,40.19
2023-02-27T14:17:56.818Z,40.45
2023-02-27T14:23:17.712Z,40.27
2023-02-27T14:28:32.056Z,40.42
2023-02-27T14:33:45.431Z,40.39
2023-02-27T14:38:49.439Z,40.66
2023-02-27T14:43:57.704Z,40.47
2023-02-27T14:49:05.437Z,40.14
2023-02-27T14:54:28.224Z,40.47
2023-02-27T14:59:34.631Z,40.30
2023-02-27T15:04:37.490Z,40.30
2023-02-27T15:09:44.849Z,40.12
2023-02-27T15:14:57.368Z,40.83
2023-02-27T15:20:00.524Z,40.68
2023-02-27T15:25:07.039Z,41.34
2023-02-27T15:30:21.829Z,41.40
2023-02-27T15:35:42.774Z,41.47
2023-02-27T15:40:45.756Z,41.34
2023-02-27T15:45:50.251Z,42.34
2023-02-27T15:51:04.406Z,42.65
2023-02-27T15:56:13.399Z,43.18
2023-02-27T16:01:35.192Z,43.62
2023-02-27T16:06:40.973Z,44.48
2023-02-27T16:11:44.004Z,44.77
2023-02-27T16:16:56.454Z,45.42
2023-02-27T16:22:18.190Z,45.76
2023-02-27T16:27:28.753Z,46.99
2023-02-27T16:32:41.482Z,47.44
2023-02-27T16:37:46.274Z,48.60
2023-02-27T16:42:50.509Z,49.77
2023-02-27T16:47:59.323Z,50.78
2023-02-27T16:53:02.305Z,51.79
2023-02-27T16:58:06.826Z,52.78
2023-02-27T17:03:09.897Z,53.49
2023-02-27T17:08:12.899Z,53.42
2023-02-27T17:13:17.373Z,53.43
2023-02-27T17:18:20.627Z,54.25
2023-02-27T17:23:23.781Z,54.96
2023-02-27T17:28:27.232Z,55.20
2023-02-27T17:33:31.832Z,55.70
2023-02-27T17:38:35.709Z,56.60
2023-02-27T17:43:39.927Z,56.67
2023-02-27T17:48:42.934Z,57.45
2023-02-27T17:53:46.140Z,58.31
2023-02-27T17:58:49.105Z,58.77
2023-02-27T18:03:54.330Z,59.42
2023-02-27T18:08:57.904Z,59.66
2023-02-27T18:14:00.809Z,60.15
2023-02-27T18:19:06.306Z,60.81
2023-02-27T18:24:10.689Z,61.35
2023-02-27T18:29:16.311Z,61.45
2023-02-27T18:34:21.280Z,62.35
2023-02-27T18:39:24.380Z,63.14
2023-02-27T18:44:27.457Z,63.82
2023-02-27T18:49:30.376Z,63.54
2023-02-27T18:54:33.474Z,64.42
2023-02-27T18:59:37.505Z,64.87
2023-02-27T19:04:40.714Z,65.23
2023-02-27T19:09:44.690Z,65.22
2023-02-27T19:14:47.707Z,65.17
2023-02-27T19:19:51.070Z,65.22
2023-02-27T19:24:54.193Z,65.84
2023-02-27T19:29:57.222Z,66.53
2023-02-27T19:35:00.931Z,66.57
2023-02-27T19:40:04.183Z,66.33
2023-02-27T19:45:07.954Z,66.69
2023-02-27T19:50:11.771Z,66.30
2023-02-27T19:55:15.937Z,66.33
2023-02-27T20:00:19.941Z,66.60
2023-02-27T20:05:25.086Z,66.96
2023-02-27T20:10:29.124Z,67.10
2023-02-27T20:15:31.879Z,67.41
2023-02-27T20:20:34.832Z,67.66
2023-02-27T20:25:37.784Z,67.90
2023-02-27T20:30:40.771Z,68.00
2023-02-27T20:35:43.848Z,68.27
2023-02-27T20:40:46.834Z,67.93
2023-02-27T20:45:50.002Z,68.19
2023-02-27T20:50:52.770Z,68.07
2023-02-27T20:55:55.802Z,68.14
2023-02-27T21:00:58.836Z,68.20
2023-02-27T21:06:02.833Z,68.27
2023-02-27T21:11:16.048Z,68.76
2023-02-27T21:16:19.773Z,69.27
2023-02-27T21:21:28.092Z,69.38
2023-02-27T21:26:38.303Z,69.32
2023-02-27T21:31:45.225Z,69.66
2023-02-27T21:36:49.199Z,69.64
2023-02-27T21:41:52.954Z,70.08
2023-02-27T21:46:56.233Z,70.21
2023-02-27T21:51:58.989Z,70.71
2023-02-27T21:57:03.231Z,71.08
2023-02-27T22:02:06.022Z,71.33
2023-02-27T22:07:11.383Z,71.66
2023-02-27T22:12:16.204Z,71.97
2023-02-27T22:17:19.279Z,72.13
2023-02-27T22:22:22.194Z,72.27
2023-02-27T22:27:25.229Z,72.30
2023-02-27T22:32:28.855Z,72.49
2023-02-27T22:37:31.932Z,72.18
2023-02-27T22:42:34.820Z,71.88
2023-02-27T22:47:37.730Z,71.87
2023-02-27T22:52:40.629Z,72.12
2023-02-27T22:57:43.733Z,71.96
2023-02-27T23:02:46.590Z,72.15
2023-02-27T23:07:50.005Z,72.41
2023-02-27T23:12:52.742Z,71.98
2023-02-27T23:17:58.535Z,71.79
2023-02-27T23:23:01.643Z,71.15
2023-02-27T23:28:06.091Z,71.50
2023-02-27T23:33:08.972Z,71.39
2023-02-27T23:38:11.931Z,71.08
2023-02-27T23:43:33.511Z,70.80
2023-02-27T23:48:36.926Z,71.02
2023-02-27T23:53:41.708Z,71.04
2023-02-27T23:58:46.545Z,71.04
